createdAt,value
2017-12-09T00:01:42.469Z,4.17
2017-12-09T00:04:09.797Z,3.77
2017-12-09T00:06:36.687Z,3.50
2017-12-09T00:09:03.610Z,4.13
2017-12-09T00:11:30.948Z,4.00
2017-12-09T00:13:57.857Z,3.60
2017-12-09T00:16:24.740Z,3.80
2017-12-09T00:18:52.019Z,4.33
2017-12-09T00:21:18.941Z,4.00
2017-12-09T00:23:45.842Z,3.93
2017-12-09T00:26:12.749Z,4.00
2017-12-09T00:28:40.028Z,3.90
2017-12-09T00:31:06.925Z,4.50
2017-12-09T00:33:33.810Z,3.73
2017-12-09T00:36:00.817Z,4.30
2017-12-09T00:38:27.725Z,3.70
2017-12-09T00:40:54.613Z,4.37
2017-12-09T00:43:21.528Z,4.20
2017-12-09T00:45:48.420Z,4.87
2017-12-09T00:48:15.757Z,4.00
2017-12-09T00:50:42.706Z,3.60
2017-12-09T00:53:09.590Z,3.40
2017-12-09T00:55:36.496Z,3.30
2017-12-09T00:58:03.793Z,3.90
2017-12-09T01:00:30.708Z,3.63
2017-12-09T01:02:57.989Z,3.50
2017-12-09T01:05:24.874Z,3.73
2017-12-09T01:07:51.785Z,4.23
2017-12-09T01:10:18.690Z,3.13
2017-12-09T01:12:45.998Z,4.07
2017-12-09T01:18:19.873Z,3.73
2017-12-09T01:20:46.825Z,3.33
2017-12-09T01:23:13.758Z,3.23
2017-12-09T01:25:40.647Z,3.90
2017-12-09T01:28:07.528Z,3.43
2017-12-09T01:30:34.446Z,3.50
2017-12-09T01:33:01.332Z,3.43
2017-12-09T01:35:28.209Z,3.67
2017-12-09T01:37:55.508Z,3.67
2017-12-09T01:40:22.388Z,3.70
2017-12-09T01:42:49.317Z,3.53
2017-12-09T01:45:16.206Z,3.10
2017-12-09T01:47:43.482Z,2.80
2017-12-09T01:50:10.390Z,3.80
2017-12-09T01:52:37.673Z,4.40
2017-12-09T01:55:04.588Z,3.80
2017-12-09T01:57:31.904Z,3.30
2017-12-09T01:59:58.785Z,3.00
2017-12-09T02:02:26.064Z,3.60
2017-12-09T02:04:52.969Z,3.23
2017-12-09T02:07:19.889Z,3.00
2017-12-09T02:09:46.770Z,3.20
2017-12-09T02:12:13.659Z,3.37
2017-12-09T02:14:40.561Z,3.50
2017-12-09T02:17:07.441Z,3.00
2017-12-09T02:19:34.376Z,3.03
2017-12-09T02:22:01.724Z,3.10
2017-12-09T02:24:28.564Z,3.50
2017-12-09T02:26:55.912Z,3.13
2017-12-09T02:29:22.808Z,3.07
2017-12-09T02:31:49.722Z,3.40
2017-12-09T02:34:16.605Z,3.20
2017-12-09T02:36:43.485Z,3.77
2017-12-09T02:39:10.478Z,2.90
2017-12-09T02:41:37.357Z,3.60
2017-12-09T02:44:04.297Z,3.10
2017-12-09T02:46:31.187Z,3.20
2017-12-09T02:48:58.454Z,3.03
2017-12-09T02:51:25.379Z,3.03
2017-12-09T02:53:52.656Z,3.20
2017-12-09T02:56:19.542Z,2.97
2017-12-09T02:58:46.450Z,3.50
2017-12-09T03:01:13.333Z,2.50
2017-12-09T03:03:40.246Z,3.17
2017-12-09T03:06:07.134Z,3.00
2017-12-09T03:08:34.056Z,2.97
2017-12-09T03:11:00.933Z,2.70
2017-12-09T03:13:27.822Z,2.70
2017-12-09T03:15:54.717Z,3.73
2017-12-09T03:18:21.593Z,2.47
2017-12-09T03:20:48.902Z,3.03
2017-12-09T03:23:15.792Z,2.77
2017-12-09T03:25:43.103Z,2.67
2017-12-09T03:28:09.986Z,3.30
2017-12-09T03:30:37.263Z,2.47
2017-12-09T03:33:04.181Z,2.77
2017-12-09T03:35:31.062Z,2.80
2017-12-09T03:37:57.950Z,2.43
2017-12-09T03:40:24.857Z,3.40
2017-12-09T03:42:51.732Z,3.40
2017-12-09T03:45:18.673Z,2.80
2017-12-09T03:47:45.553Z,2.67
2017-12-09T03:50:12.833Z,2.70
2017-12-09T03:52:39.744Z,3.00
2017-12-09T03:55:06.643Z,3.40
2017-12-09T03:57:33.558Z,3.27
2017-12-09T04:00:00.837Z,2.97
2017-12-09T04:02:27.748Z,2.57
2017-12-09T04:04:55.029Z,3.07
2017-12-09T04:07:21.941Z,2.70
2017-12-09T04:09:48.840Z,2.83
2017-12-09T04:12:15.725Z,2.60
2017-12-09T04:14:42.634Z,3.83
2017-12-09T04:17:09.526Z,3.33
2017-12-09T04:19:36.434Z,2.83
2017-12-09T04:22:03.309Z,2.67
2017-12-09T04:24:30.221Z,3.40
2017-12-09T04:26:57.132Z,3.20
2017-12-09T04:29:24.047Z,3.03
2017-12-09T04:31:50.981Z,3.00
2017-12-09T04:34:17.869Z,2.90
2017-12-09T04:36:44.776Z,3.00
2017-12-09T04:39:11.684Z,3.30
2017-12-09T04:41:38.569Z,4.00
2017-12-09T04:44:05.476Z,3.17
2017-12-09T04:46:32.389Z,3.40
2017-12-09T04:48:59.661Z,3.27
2017-12-09T04:51:26.565Z,3.23
2017-12-09T04:53:53.477Z,3.20
2017-12-09T04:56:20.385Z,3.93
2017-12-09T04:58:47.301Z,3.23
2017-12-09T05:01:14.183Z,3.50
2017-12-09T05:03:41.093Z,3.47
2017-12-09T05:06:07.992Z,3.23
2017-12-09T05:08:34.901Z,4.13
2017-12-09T05:11:02.180Z,3.53
2017-12-09T05:13:29.092Z,3.90
2017-12-09T05:15:56.366Z,4.10
2017-12-09T05:18:23.245Z,4.20
2017-12-09T05:20:50.157Z,4.53
2017-12-09T05:23:17.041Z,4.00
2017-12-09T05:25:43.941Z,4.53
2017-12-09T05:28:11.229Z,3.27
2017-12-09T05:30:38.105Z,3.80
2017-12-09T05:33:05.109Z,3.20
2017-12-09T05:35:31.989Z,3.40
2017-12-09T05:37:58.905Z,3.73
2017-12-09T05:40:25.801Z,5.37
2017-12-09T05:42:52.745Z,3.37
2017-12-09T05:45:19.666Z,3.20
2017-12-09T05:47:46.545Z,3.60
2017-12-09T05:50:13.828Z,3.43
2017-12-09T05:52:40.745Z,3.60
2017-12-09T05:55:07.621Z,4.00
2017-12-09T05:57:34.517Z,3.20
2017-12-09T06:00:01.433Z,3.57
2017-12-09T06:02:28.349Z,3.60
2017-12-09T06:04:55.233Z,3.60
2017-12-09T06:07:22.121Z,3.07
2017-12-09T06:09:49.429Z,3.83
2017-12-09T06:12:16.321Z,4.10
2017-12-09T06:14:43.617Z,4.10
2017-12-09T06:17:10.514Z,3.47
2017-12-09T06:19:37.794Z,3.30
2017-12-09T06:22:04.723Z,3.60
2017-12-09T06:24:32.002Z,4.13
2017-12-09T06:26:59.012Z,3.00
2017-12-09T06:29:25.913Z,3.83
2017-12-09T06:31:52.789Z,3.43
2017-12-09T06:34:19.700Z,3.70
2017-12-09T06:36:46.589Z,4.03
2017-12-09T06:39:13.582Z,3.37
2017-12-09T06:41:40.454Z,3.83
2017-12-09T06:44:07.370Z,3.60
2017-12-09T06:46:34.249Z,3.37
2017-12-09T06:49:01.173Z,3.30
2017-12-09T06:51:28.059Z,3.40
2017-12-09T06:53:54.942Z,3.40
2017-12-09T06:56:21.849Z,3.40
2017-12-09T06:58:48.727Z,3.53
2017-12-09T07:01:15.773Z,4.03
2017-12-09T07:03:43.089Z,2.83
2017-12-09T07:06:09.965Z,3.90
2017-12-09T07:08:37.245Z,3.63
2017-12-09T07:11:04.156Z,3.93
2017-12-09T07:13:31.432Z,3.80
2017-12-09T07:15:58.317Z,3.90
2017-12-09T07:18:25.226Z,3.07
2017-12-09T07:20:52.102Z,2.97
2017-12-09T07:23:19.018Z,3.50
2017-12-09T07:25:45.901Z,3.40
2017-12-09T07:28:12.794Z,3.63
2017-12-09T07:30:40.122Z,4.10
2017-12-09T07:33:07.009Z,3.40
2017-12-09T07:35:33.925Z,3.73
2017-12-09T07:38:01.205Z,2.93
2017-12-09T07:40:28.121Z,3.60
2017-12-09T07:42:55.011Z,4.40
2017-12-09T07:45:21.894Z,3.43
2017-12-09T07:47:48.805Z,3.13
2017-12-09T07:50:15.676Z,3.93
2017-12-09T07:52:42.604Z,3.60
2017-12-09T07:55:09.501Z,3.67
2017-12-09T07:57:36.778Z,3.03
2017-12-09T08:00:03.691Z,3.40
2017-12-09T08:02:30.561Z,3.77
2017-12-09T08:04:57.452Z,4.07
2017-12-09T08:07:24.471Z,3.90
2017-12-09T08:09:51.345Z,3.70
2017-12-09T08:12:18.265Z,3.10
2017-12-09T08:14:45.209Z,3.50
2017-12-09T08:17:12.097Z,4.50
2017-12-09T08:19:39.041Z,3.60
2017-12-09T08:22:05.933Z,3.77
2017-12-09T08:24:32.846Z,3.13
2017-12-09T08:26:59.766Z,3.80
2017-12-09T08:29:26.651Z,3.70
2017-12-09T08:31:53.925Z,3.67
2017-12-09T08:34:20.832Z,3.87
2017-12-09T08:36:47.733Z,3.47
2017-12-09T08:39:14.605Z,4.13
2017-12-09T08:41:41.538Z,3.10
2017-12-09T08:44:08.419Z,4.00
2017-12-09T08:46:35.308Z,3.20
2017-12-09T08:49:02.233Z,3.57
2017-12-09T08:51:29.509Z,3.53
2017-12-09T08:53:56.398Z,4.50
2017-12-09T08:56:23.354Z,4.27
2017-12-09T08:58:50.220Z,3.20
2017-12-09T09:01:17.505Z,3.30
2017-12-09T09:03:44.409Z,2.87
2017-12-09T09:06:11.310Z,2.90
2017-12-09T09:08:38.189Z,3.10
2017-12-09T09:11:05.109Z,3.27
2017-12-09T09:13:31.989Z,3.50
2017-12-09T09:15:59.265Z,3.10
2017-12-09T09:18:26.164Z,2.80
2017-12-09T09:20:53.069Z,2.83
2017-12-09T09:23:20.352Z,3.60
2017-12-09T09:25:47.233Z,3.20
2017-12-09T09:28:14.133Z,3.20
2017-12-09T09:30:41.037Z,3.00
2017-12-09T09:33:08.318Z,2.73
2017-12-09T09:35:35.234Z,2.97
2017-12-09T09:38:02.529Z,3.00
2017-12-09T09:40:29.403Z,2.30
2017-12-09T09:42:56.305Z,2.63
2017-12-09T09:45:23.185Z,2.87
2017-12-09T09:47:50.086Z,3.37
2017-12-09T09:50:16.997Z,2.87
2017-12-09T09:52:43.878Z,2.90
2017-12-09T09:55:10.759Z,2.70
2017-12-09T09:57:37.657Z,2.60
2017-12-09T10:00:04.565Z,2.13
2017-12-09T10:02:31.440Z,3.17
2017-12-09T10:04:58.750Z,2.20
2017-12-09T10:07:25.676Z,1.90
2017-12-09T10:09:52.548Z,3.20
2017-12-09T10:12:19.430Z,2.80
2017-12-09T10:14:46.745Z,2.23
2017-12-09T10:17:13.629Z,2.60
2017-12-09T10:19:40.940Z,2.50
2017-12-09T10:22:07.821Z,2.30
2017-12-09T10:24:35.112Z,2.80
2017-12-09T10:27:02.026Z,2.13
2017-12-09T10:29:29.317Z,2.13
2017-12-09T10:31:56.221Z,3.03
2017-12-09T10:34:23.493Z,2.20
2017-12-09T10:36:50.405Z,2.33
2017-12-09T10:39:17.329Z,2.80
2017-12-09T10:41:44.288Z,3.47
2017-12-09T10:44:11.168Z,2.80
2017-12-09T10:46:38.456Z,2.83
2017-12-09T10:49:05.492Z,2.40
2017-12-09T10:51:32.381Z,2.20
2017-12-09T10:53:59.292Z,2.50
2017-12-09T10:56:26.206Z,3.10
2017-12-09T10:58:53.133Z,2.37
2017-12-09T11:01:20.041Z,1.97
2017-12-09T11:03:46.962Z,2.40
2017-12-09T11:06:13.836Z,2.20
2017-12-09T11:08:40.730Z,2.53
2017-12-09T11:11:07.632Z,2.93
2017-12-09T11:13:34.508Z,2.30
2017-12-09T11:16:01.809Z,2.60
2017-12-09T11:18:28.713Z,2.20
2017-12-09T11:20:56.013Z,2.30
2017-12-09T11:23:22.917Z,2.10
2017-12-09T11:25:50.193Z,2.57
2017-12-09T11:28:17.101Z,2.00
2017-12-09T11:30:44.120Z,2.30
2017-12-09T11:33:11.002Z,2.10
2017-12-09T11:35:38.281Z,2.60
2017-12-09T11:38:05.203Z,2.67
2017-12-09T11:40:32.085Z,1.87
2017-12-09T11:42:58.962Z,2.20
2017-12-09T11:45:25.873Z,1.63
2017-12-09T11:47:52.757Z,2.50
2017-12-09T11:50:19.669Z,3.20
2017-12-09T11:52:46.558Z,2.27
2017-12-09T11:55:13.458Z,2.77
2017-12-09T11:57:40.338Z,2.03
2017-12-09T12:00:07.233Z,2.63
2017-12-09T12:02:34.117Z,2.37
2017-12-09T12:05:01.032Z,2.10
2017-12-09T12:07:27.942Z,2.80
2017-12-09T12:09:54.854Z,2.00
2017-12-09T12:12:21.786Z,2.60
2017-12-09T12:14:48.716Z,2.70
2017-12-09T12:17:15.592Z,2.40
2017-12-09T12:19:42.478Z,2.20
2017-12-09T12:22:09.790Z,2.10
2017-12-09T12:24:36.685Z,2.47
2017-12-09T12:27:03.973Z,2.87
2017-12-09T12:29:30.882Z,2.63
2017-12-09T12:31:58.165Z,2.73
2017-12-09T12:34:25.092Z,2.97
2017-12-09T12:36:51.969Z,3.13
2017-12-09T12:39:18.868Z,2.80
2017-12-09T12:41:46.173Z,3.30
2017-12-09T12:44:13.077Z,3.23
2017-12-09T12:46:40.374Z,3.47
2017-12-09T12:49:07.280Z,3.33
2017-12-09T12:51:34.194Z,3.80
2017-12-09T12:54:01.073Z,3.60
2017-12-09T12:56:27.990Z,3.60
2017-12-09T12:58:54.875Z,2.90
2017-12-09T13:01:21.756Z,4.10
2017-12-09T13:03:48.661Z,4.13
2017-12-09T13:06:15.544Z,3.80
2017-12-09T13:08:42.454Z,3.87
2017-12-09T13:11:09.384Z,3.30
2017-12-09T13:13:36.681Z,4.03
2017-12-09T13:16:03.568Z,3.33
2017-12-09T13:18:30.870Z,3.80
2017-12-09T13:20:57.761Z,3.90
2017-12-09T13:23:24.664Z,3.23
2017-12-09T13:25:51.553Z,3.80
2017-12-09T13:28:18.489Z,3.50
2017-12-09T13:30:45.439Z,3.23
2017-12-09T13:33:12.324Z,3.47
2017-12-09T13:35:39.255Z,2.93
2017-12-09T13:38:06.534Z,2.70
2017-12-09T13:40:33.448Z,3.40
2017-12-09T13:43:00.742Z,2.90
2017-12-09T13:45:27.630Z,2.53
2017-12-09T13:47:54.551Z,2.77
2017-12-09T13:50:21.436Z,3.13
2017-12-09T13:52:48.714Z,2.33
2017-12-09T13:55:15.718Z,2.87
2017-12-09T13:57:42.602Z,2.77
2017-12-09T14:00:09.482Z,3.07
2017-12-09T14:02:36.385Z,2.40
2017-12-09T14:05:03.663Z,2.70
2017-12-09T14:07:30.669Z,2.50
2017-12-09T14:09:57.964Z,2.20
2017-12-09T14:12:24.850Z,3.00
2017-12-09T14:14:51.761Z,2.60
2017-12-09T14:17:18.706Z,3.10
2017-12-09T14:19:45.593Z,3.00
2017-12-09T14:22:12.481Z,2.60
2017-12-09T14:24:39.489Z,2.43
2017-12-09T14:27:06.397Z,3.10
2017-12-09T14:29:33.328Z,2.23
2017-12-09T14:32:00.234Z,2.93
2017-12-09T14:34:27.182Z,2.17
2017-12-09T14:36:54.167Z,2.40
2017-12-09T14:39:21.169Z,2.10
2017-12-09T14:41:48.049Z,2.17
2017-12-09T14:44:14.946Z,2.03
2017-12-09T14:46:41.829Z,2.53
2017-12-09T14:49:09.145Z,2.50
2017-12-09T14:51:36.033Z,2.50
2017-12-09T14:54:03.362Z,2.27
2017-12-09T14:56:30.265Z,3.13
2017-12-09T14:58:57.148Z,2.60
2017-12-09T15:01:24.052Z,2.17
2017-12-09T15:03:51.045Z,2.60
2017-12-09T15:06:17.995Z,2.90
2017-12-09T15:08:45.314Z,2.60
2017-12-09T15:11:12.335Z,2.90
2017-12-09T15:13:39.391Z,2.00
2017-12-09T15:16:06.377Z,2.57
2017-12-09T15:18:33.265Z,2.73
2017-12-09T15:21:00.181Z,2.50
2017-12-09T15:23:27.125Z,3.13
2017-12-09T15:25:54.029Z,2.57
2017-12-09T15:28:20.909Z,2.50
2017-12-09T15:30:47.812Z,2.53
2017-12-09T15:33:14.720Z,2.37
2017-12-09T15:35:42.109Z,2.57
2017-12-09T15:38:08.988Z,1.90
2017-12-09T15:40:35.905Z,2.63
2017-12-09T15:43:02.787Z,1.90
2017-12-09T15:45:29.690Z,2.13
2017-12-09T15:47:56.602Z,2.80
2017-12-09T15:50:23.876Z,2.70
2017-12-09T15:52:50.750Z,2.47
2017-12-09T15:55:17.673Z,2.40
2017-12-09T15:57:44.558Z,1.87
2017-12-09T16:00:11.465Z,3.23
2017-12-09T16:02:38.421Z,2.10
2017-12-09T16:05:05.296Z,2.47
2017-12-09T16:07:32.414Z,2.23
2017-12-09T16:09:59.294Z,2.37
2017-12-09T16:12:26.192Z,2.93
2017-12-09T16:14:53.100Z,2.47
2017-12-09T16:17:20.097Z,2.60
2017-12-09T16:19:47.008Z,3.10
2017-12-09T16:22:14.313Z,2.60
2017-12-09T16:24:41.213Z,2.63
2017-12-09T16:27:08.550Z,2.60
2017-12-09T16:29:35.434Z,2.17
2017-12-09T16:32:02.349Z,2.90
2017-12-09T16:34:29.638Z,2.40
2017-12-09T16:36:56.545Z,2.90
2017-12-09T16:39:23.457Z,2.33
2017-12-09T16:41:50.345Z,2.30
2017-12-09T16:44:17.657Z,2.60
2017-12-09T16:46:44.550Z,2.13
2017-12-09T16:49:11.873Z,1.87
2017-12-09T16:51:38.881Z,2.30
2017-12-09T16:54:05.769Z,2.30
2017-12-09T16:56:32.717Z,2.10
2017-12-09T16:58:59.627Z,2.13
2017-12-09T17:01:26.620Z,1.93
2017-12-09T17:03:53.496Z,2.10
2017-12-09T17:06:20.764Z,1.80
2017-12-09T17:08:47.673Z,1.80
2017-12-09T17:11:14.637Z,2.07
2017-12-09T17:13:41.566Z,1.97
2017-12-09T17:16:08.470Z,2.00
2017-12-09T17:18:35.369Z,1.83
2017-12-09T17:21:02.650Z,2.50
2017-12-09T17:23:29.565Z,2.10
2017-12-09T17:25:56.893Z,2.03
2017-12-09T17:28:23.809Z,2.10
2017-12-09T17:30:50.717Z,2.00
2017-12-09T17:33:17.993Z,2.30
2017-12-09T17:35:44.889Z,2.03
2017-12-09T17:38:11.793Z,1.43
2017-12-09T17:40:38.674Z,2.00
2017-12-09T17:43:05.592Z,2.23
2017-12-09T17:45:32.521Z,2.37
2017-12-09T17:47:59.426Z,2.37
2017-12-09T17:50:26.700Z,2.40
2017-12-09T17:52:53.984Z,2.10
2017-12-09T17:55:20.880Z,2.80
2017-12-09T17:57:47.764Z,2.47
2017-12-09T18:00:15.445Z,2.43
2017-12-09T18:02:42.329Z,3.70
2017-12-09T18:05:09.208Z,2.30
2017-12-09T18:07:36.129Z,2.17
2017-12-09T18:10:03.409Z,1.93
2017-12-09T18:12:30.296Z,2.40
2017-12-09T18:14:57.210Z,1.97
2017-12-09T18:17:24.096Z,2.30
2017-12-09T18:19:50.981Z,2.20
2017-12-09T18:22:17.946Z,2.93
2017-12-09T18:24:44.829Z,1.83
2017-12-09T18:27:11.738Z,2.30
2017-12-09T18:29:38.620Z,2.53
2017-12-09T18:32:05.517Z,2.20
2017-12-09T18:34:32.417Z,2.73
2017-12-09T18:36:59.333Z,2.70
2017-12-09T18:39:26.224Z,3.10
2017-12-09T18:41:53.547Z,2.30
2017-12-09T18:44:20.421Z,2.80
2017-12-09T18:46:47.313Z,2.77
2017-12-09T18:49:14.213Z,2.90
2017-12-09T18:51:41.094Z,2.60
2017-12-09T18:54:08.004Z,2.30
2017-12-09T18:56:34.880Z,2.77
2017-12-09T18:59:01.786Z,2.80
2017-12-09T19:01:28.697Z,2.43
2017-12-09T19:03:55.573Z,2.87
2017-12-09T19:06:22.488Z,2.53
2017-12-09T19:08:49.368Z,2.70
2017-12-09T19:11:16.269Z,3.13
2017-12-09T19:13:43.178Z,2.27
2017-12-09T19:16:10.461Z,2.90
2017-12-09T19:18:37.373Z,2.60
2017-12-09T19:21:04.650Z,2.73
2017-12-09T19:23:31.557Z,2.40
2017-12-09T19:25:58.442Z,3.43
2017-12-09T19:28:25.362Z,3.10
2017-12-09T19:30:52.654Z,3.30
2017-12-09T19:33:19.541Z,3.60
2017-12-09T19:35:46.453Z,3.30
2017-12-09T19:38:13.341Z,2.80
2017-12-09T19:40:40.229Z,3.60
2017-12-09T19:43:07.129Z,3.40
2017-12-09T19:45:34.045Z,3.00
2017-12-09T19:48:00.954Z,2.90
2017-12-09T19:50:27.834Z,3.50
2017-12-09T19:52:54.741Z,3.57
2017-12-09T19:55:22.036Z,3.10
2017-12-09T19:57:48.917Z,3.80
2017-12-09T20:00:16.437Z,3.23
2017-12-09T20:02:43.324Z,3.40
2017-12-09T20:05:10.606Z,3.57
2017-12-09T20:07:37.506Z,3.47
2017-12-09T20:10:04.414Z,3.40
2017-12-09T20:12:31.325Z,2.67
2017-12-09T20:14:58.670Z,3.70
2017-12-09T20:17:25.558Z,2.97
2017-12-09T20:19:52.466Z,2.97
2017-12-09T20:22:19.745Z,3.73
2017-12-09T20:24:46.665Z,3.40
2017-12-09T20:27:13.945Z,3.23
2017-12-09T20:29:40.837Z,3.50
2017-12-09T20:32:07.755Z,3.40
2017-12-09T20:34:34.641Z,4.07
2017-12-09T20:37:01.522Z,3.93
2017-12-09T20:39:28.439Z,4.60
2017-12-09T20:41:55.312Z,3.80
2017-12-09T20:44:22.196Z,3.47
2017-12-09T20:46:49.114Z,3.77
2017-12-09T20:49:16.017Z,3.87
2017-12-09T20:51:42.903Z,3.43
2017-12-09T20:54:09.825Z,3.67
2017-12-09T20:56:37.127Z,3.53
2017-12-09T20:59:04.924Z,3.77
2017-12-09T21:01:32.251Z,3.73
2017-12-09T21:03:59.136Z,3.67
2017-12-09T21:06:26.441Z,4.07
2017-12-09T21:08:53.344Z,3.97
2017-12-09T21:11:20.622Z,3.87
2017-12-09T21:13:47.535Z,3.33
2017-12-09T21:16:14.430Z,4.67
2017-12-09T21:18:41.311Z,3.50
2017-12-09T21:21:08.209Z,3.20
2017-12-09T21:23:35.181Z,4.20
2017-12-09T21:26:02.088Z,3.33
2017-12-09T21:28:28.966Z,3.87
2017-12-09T21:30:55.882Z,3.47
2017-12-09T21:33:22.759Z,3.53
2017-12-09T21:35:49.642Z,3.40
2017-12-09T21:38:16.559Z,3.40
2017-12-09T21:40:43.449Z,3.47
2017-12-09T21:43:10.724Z,2.90
2017-12-09T21:45:37.638Z,3.10
2017-12-09T21:48:04.513Z,3.93
2017-12-09T21:50:31.427Z,3.93
2017-12-09T21:52:58.728Z,4.37
2017-12-09T21:55:25.612Z,4.03
2017-12-09T21:57:52.519Z,3.87
2017-12-09T22:00:20.317Z,4.00
2017-12-09T22:02:47.246Z,4.30
2017-12-09T22:05:14.216Z,4.23
2017-12-09T22:07:41.100Z,4.20
2017-12-09T22:10:08.014Z,4.17
2017-12-09T22:12:34.900Z,4.50
2017-12-09T22:15:01.781Z,4.23
2017-12-09T22:17:28.693Z,4.00
2017-12-09T22:19:55.594Z,3.87
2017-12-09T22:22:22.483Z,3.90
2017-12-09T22:24:49.392Z,3.57
2017-12-09T22:27:16.669Z,3.37
2017-12-09T22:29:43.576Z,3.90
2017-12-09T22:32:10.573Z,4.50
2017-12-09T22:34:37.494Z,3.53
2017-12-09T22:37:04.766Z,4.73
2017-12-09T22:39:31.682Z,3.70
2017-12-09T22:41:58.564Z,3.70
2017-12-09T22:44:25.464Z,4.10
2017-12-09T22:46:52.344Z,4.20
2017-12-09T22:49:19.346Z,4.53
2017-12-09T22:51:46.240Z,4.40
2017-12-09T22:54:13.121Z,3.70
2017-12-09T22:56:40.042Z,4.20
2017-12-09T22:59:06.976Z,3.57
2017-12-09T23:01:33.887Z,4.23
2017-12-09T23:04:00.770Z,5.70
2017-12-09T23:06:27.669Z,3.73
2017-12-09T23:08:54.577Z,3.30
2017-12-09T23:11:21.495Z,3.70
2017-12-09T23:13:48.793Z,3.70
2017-12-09T23:16:15.674Z,4.27
2017-12-09T23:18:42.594Z,4.17
2017-12-09T23:21:09.474Z,3.50
2017-12-09T23:23:36.740Z,3.10
2017-12-09T23:26:03.649Z,2.90
2017-12-09T23:28:30.529Z,3.10
2017-12-09T23:30:57.450Z,2.70
2017-12-09T23:33:24.329Z,2.53
2017-12-09T23:35:51.250Z,3.77
2017-12-09T23:38:18.565Z,2.80
2017-12-09T23:40:45.445Z,3.30
2017-12-09T23:43:12.717Z,2.73
2017-12-09T23:45:39.616Z,2.80
2017-12-09T23:48:06.502Z,2.97
2017-12-09T23:50:33.910Z,2.80
2017-12-09T23:53:00.797Z,2.70
2017-12-09T23:55:28.184Z,2.73
2017-12-09T23:57:55.092Z,3.70
